createdAt,value
2023-01-06T00:02:02.457Z,67.41
2023-01-06T00:07:03.983Z,67.67
2023-01-06T00:12:06.929Z,66.88
2023-01-06T00:17:08.788Z,67.56
2023-01-06T00:22:10.278Z,67.90
2023-01-06T00:27:11.684Z,68.25
2023-01-06T00:32:13.086Z,68.88
2023-01-06T00:37:14.678Z,68.67
2023-01-06T00:42:16.193Z,69.02
2023-01-06T00:47:18.131Z,69.00
2023-01-06T00:52:19.533Z,68.54
2023-01-06T00:57:20.950Z,69.19
2023-01-06T01:02:22.625Z,70.10
2023-01-06T01:07:24.131Z,70.63
2023-01-06T01:12:25.583Z,70.25
2023-01-06T01:17:30.410Z,70.56
2023-01-06T01:22:32.208Z,71.56
2023-01-06T01:27:33.625Z,71.57
2023-01-06T01:32:35.054Z,71.42
2023-01-06T01:37:36.500Z,71.46
2023-01-06T01:42:38.017Z,71.84
2023-01-06T01:47:56.526Z,71.73
2023-01-06T01:53:07.596Z,70.94
2023-01-06T01:58:18.335Z,70.93
2023-01-06T02:03:21.777Z,71.04
2023-01-06T02:08:34.937Z,71.14
2023-01-06T02:13:38.944Z,71.26
2023-01-06T02:18:54.080Z,71.61
2023-01-06T02:24:12.897Z,72.05
2023-01-06T02:29:29.456Z,72.21
2023-01-06T02:34:41.652Z,72.46
2023-01-06T02:40:18.408Z,72.69
2023-01-06T02:45:40.258Z,72.45
2023-01-06T02:50:50.295Z,72.80
2023-01-06T02:55:54.891Z,72.96
2023-01-06T03:01:05.364Z,73.60
2023-01-06T03:06:11.807Z,73.54
2023-01-06T03:11:13.911Z,74.23
2023-01-06T03:16:16.414Z,74.45
2023-01-06T03:21:22.414Z,74.60
2023-01-06T03:26:24.986Z,74.27
2023-01-06T03:31:37.442Z,74.70
2023-01-06T03:36:53.298Z,74.44
2023-01-06T03:42:35.611Z,74.89
2023-01-06T03:48:04.637Z,74.63
2023-01-06T03:53:34.180Z,74.32
2023-01-06T03:58:38.743Z,74.78
2023-01-06T04:03:40.356Z,75.09
2023-01-06T04:08:41.870Z,75.05
2023-01-06T04:13:43.294Z,75.04
2023-01-06T04:18:45.010Z,75.27
2023-01-06T04:23:46.457Z,75.61
2023-01-06T04:28:47.887Z,75.55
2023-01-06T04:33:49.293Z,75.96
2023-01-06T04:38:50.936Z,75.34
2023-01-06T04:43:52.539Z,75.17
2023-01-06T04:48:53.969Z,75.06
2023-01-06T04:53:55.935Z,75.27
2023-01-06T04:58:57.844Z,75.63
2023-01-06T05:03:59.353Z,75.48
2023-01-06T05:09:00.860Z,75.08
2023-01-06T05:14:02.280Z,75.42
2023-01-06T05:19:04.133Z,75.77
2023-01-06T05:24:05.794Z,75.55
2023-01-06T05:29:07.230Z,75.47
2023-01-06T05:34:10.628Z,75.70
2023-01-06T05:39:12.044Z,75.85
2023-01-06T05:44:13.524Z,76.02
2023-01-06T05:49:14.939Z,75.67
2023-01-06T05:54:16.472Z,75.23
2023-01-06T05:59:17.882Z,75.50
2023-01-06T06:04:19.298Z,75.45
2023-01-06T06:09:20.779Z,75.00
2023-01-06T06:14:22.246Z,75.16
2023-01-06T06:19:23.734Z,75.38
2023-01-06T06:24:25.143Z,75.00
2023-01-06T06:29:26.566Z,74.58
2023-01-06T06:34:28.016Z,74.60
2023-01-06T06:39:29.905Z,74.88
2023-01-06T06:44:31.354Z,74.91
2023-01-06T06:49:32.792Z,74.78
2023-01-06T06:54:34.350Z,74.88
2023-01-06T06:59:35.770Z,75.64
2023-01-06T07:04:37.288Z,75.71
2023-01-06T07:09:38.847Z,75.62
2023-01-06T07:14:40.282Z,75.44
2023-01-06T07:19:41.706Z,75.03
2023-01-06T07:24:43.154Z,75.91
2023-01-06T07:29:44.573Z,75.55
2023-01-06T07:34:46.001Z,76.20
2023-01-06T07:39:47.438Z,76.05
2023-01-06T07:44:48.949Z,76.17
2023-01-06T07:49:50.347Z,76.27
2023-01-06T07:54:51.752Z,76.14
2023-01-06T07:59:53.290Z,76.15
2023-01-06T08:04:54.696Z,76.09
2023-01-06T08:09:56.106Z,76.21
2023-01-06T08:14:57.534Z,76.36
2023-01-06T08:19:58.951Z,76.35
2023-01-06T08:25:00.388Z,76.35
2023-01-06T08:30:01.858Z,75.86
2023-01-06T08:35:03.395Z,76.06
2023-01-06T08:40:05.413Z,76.04
2023-01-06T08:45:07.997Z,76.39
2023-01-06T08:50:09.455Z,76.68
2023-01-06T08:55:10.948Z,76.31
2023-01-06T09:00:13.111Z,75.53
2023-01-06T09:05:14.883Z,76.00
2023-01-06T09:10:17.352Z,75.81
2023-01-06T09:15:18.851Z,75.92
2023-01-06T09:20:20.286Z,75.78
2023-01-06T09:25:22.724Z,75.50
2023-01-06T09:30:25.281Z,75.48
2023-01-06T09:35:26.718Z,74.51
2023-01-06T09:40:58.039Z,75.21
2023-01-06T09:46:02.675Z,75.19
2023-01-06T09:51:06.824Z,75.76
2023-01-06T09:56:15.101Z,76.08
2023-01-06T10:01:22.498Z,77.58
2023-01-06T10:07:02.496Z,76.25
2023-01-06T10:12:35.399Z,75.23
2023-01-06T10:18:10.603Z,75.11
2023-01-06T10:23:21.085Z,75.35
2023-01-06T10:28:30.304Z,74.67
2023-01-06T10:33:35.830Z,74.85
2023-01-06T10:38:49.683Z,74.26
2023-01-06T10:43:51.837Z,74.12
2023-01-06T10:48:53.259Z,74.99
2023-01-06T10:53:57.831Z,75.03
2023-01-06T10:59:08.385Z,75.29
2023-01-06T11:04:15.388Z,75.95
2023-01-06T11:09:45.196Z,76.46
2023-01-06T11:14:57.578Z,77.67
2023-01-06T11:20:13.405Z,77.22
2023-01-06T11:25:20.569Z,77.32
2023-01-06T11:30:26.827Z,77.32
2023-01-06T11:35:33.531Z,77.32
2023-01-06T11:40:37.587Z,77.30
2023-01-06T11:45:49.346Z,77.28
2023-01-06T11:50:54.014Z,77.21
2023-01-06T11:56:07.504Z,78.70
2023-01-06T12:01:33.465Z,77.79
2023-01-06T12:06:39.771Z,77.03
2023-01-06T12:11:45.859Z,77.90
2023-01-06T12:16:52.441Z,79.61
2023-01-06T12:21:55.158Z,80.15
2023-01-06T12:26:57.149Z,82.27
2023-01-06T12:32:19.674Z,80.77
2023-01-06T12:37:38.066Z,81.75
2023-01-06T12:42:49.431Z,82.21
2023-01-06T12:47:56.335Z,82.38
2023-01-06T12:53:20.460Z,82.56
2023-01-06T12:58:29.035Z,83.21
2023-01-06T13:03:39.988Z,83.88
2023-01-06T13:09:14.989Z,85.58
2023-01-06T13:14:38.435Z,85.36
2023-01-06T13:19:57.777Z,84.63
2023-01-06T13:25:31.329Z,85.15
2023-01-06T13:31:11.280Z,85.31
2023-01-06T13:36:52.993Z,85.13
2023-01-06T13:41:57.664Z,84.88
2023-01-06T13:47:08.083Z,85.62
2023-01-06T13:52:30.770Z,85.49
2023-01-06T13:57:35.573Z,85.23
2023-01-06T14:02:39.615Z,86.76
2023-01-06T14:07:48.972Z,85.78
2023-01-06T14:12:50.362Z,85.65
2023-01-06T14:17:52.125Z,85.73
2023-01-06T14:23:07.607Z,86.12
2023-01-06T14:28:27.714Z,86.11
2023-01-06T14:33:39.862Z,86.34
2023-01-06T14:38:46.292Z,86.54
2023-01-06T14:43:54.320Z,86.72
2023-01-06T14:49:01.235Z,87.79
2023-01-06T14:54:08.828Z,87.69
2023-01-06T14:59:15.764Z,89.69
2023-01-06T15:04:26.972Z,88.31
2023-01-06T15:09:29.038Z,88.72
2023-01-06T15:14:33.535Z,88.76
2023-01-06T15:19:35.428Z,88.71
2023-01-06T15:24:42.708Z,88.96
2023-01-06T15:29:55.407Z,90.03
2023-01-06T15:34:59.418Z,91.07
2023-01-06T15:40:01.931Z,90.91
2023-01-06T15:45:06.837Z,91.15
2023-01-06T15:50:18.721Z,92.06
2023-01-06T15:55:25.034Z,92.40
2023-01-06T16:00:31.157Z,92.78
2023-01-06T16:05:42.831Z,93.61
2023-01-06T16:10:46.135Z,95.14
2023-01-06T16:15:55.677Z,95.06
2023-01-06T16:20:58.426Z,95.36
2023-01-06T16:26:10.535Z,95.26
2023-01-06T16:31:13.853Z,95.26
2023-01-06T16:36:16.926Z,95.43
2023-01-06T16:41:19.542Z,95.79
2023-01-06T16:46:25.839Z,95.59
2023-01-06T16:51:28.750Z,95.68
2023-01-06T16:56:30.182Z,95.63
2023-01-06T17:01:31.752Z,96.08
2023-01-06T17:06:33.231Z,96.00
2023-01-06T17:11:38.045Z,95.58
2023-01-06T17:16:41.838Z,95.32
2023-01-06T17:21:43.336Z,95.80
2023-01-06T17:26:51.420Z,95.25
2023-01-06T17:31:55.656Z,93.89
2023-01-06T17:36:58.540Z,94.37
2023-01-06T17:42:12.149Z,95.11
2023-01-06T17:47:16.395Z,93.47
2023-01-06T17:52:21.322Z,93.15
2023-01-06T17:57:22.737Z,93.17
2023-01-06T18:02:43.975Z,93.08
2023-01-06T18:07:45.368Z,94.08
2023-01-06T18:12:46.820Z,93.63
2023-01-06T18:17:48.333Z,93.14
2023-01-06T18:22:49.755Z,93.26
2023-01-06T18:27:51.505Z,93.10
2023-01-06T18:32:53.316Z,93.59
2023-01-06T18:37:59.190Z,93.50
2023-01-06T18:43:17.029Z,93.32
2023-01-06T18:48:24.966Z,92.80
2023-01-06T18:53:32.333Z,92.36
2023-01-06T18:58:37.169Z,92.59
2023-01-06T19:03:41.527Z,92.18
2023-01-06T19:08:45.866Z,91.97
2023-01-06T19:13:48.030Z,91.35
2023-01-06T19:18:49.554Z,91.58
2023-01-06T19:23:50.989Z,91.61
2023-01-06T19:28:59.419Z,90.60
2023-01-06T19:34:03.294Z,90.51
2023-01-06T19:39:39.600Z,91.15
2023-01-06T19:44:41.453Z,90.31
2023-01-06T19:49:46.511Z,90.04
2023-01-06T19:54:47.909Z,89.02
2023-01-06T19:59:49.324Z,88.72
2023-01-06T20:04:50.793Z,89.67
2023-01-06T20:09:53.867Z,89.22
2023-01-06T20:14:55.273Z,88.85
2023-01-06T20:19:56.699Z,87.93
2023-01-06T20:24:58.127Z,87.78
2023-01-06T20:29:59.592Z,87.74
2023-01-06T20:35:01.057Z,87.12
2023-01-06T20:40:02.622Z,88.11
2023-01-06T20:45:04.722Z,86.77
2023-01-06T20:50:07.458Z,87.81
2023-01-06T20:55:09.619Z,88.18
2023-01-06T21:00:12.727Z,88.25
2023-01-06T21:05:14.232Z,87.87
2023-01-06T21:10:15.741Z,88.26
2023-01-06T21:15:17.466Z,88.32
2023-01-06T21:20:18.889Z,88.91
2023-01-06T21:25:20.378Z,88.62
2023-01-06T21:30:22.631Z,88.43
2023-01-06T21:35:24.277Z,88.10
2023-01-06T21:40:25.854Z,87.52
2023-01-06T21:45:27.370Z,87.89
2023-01-06T21:50:30.303Z,87.82
2023-01-06T21:55:31.845Z,89.70
2023-01-06T22:00:33.308Z,87.87
2023-01-06T22:05:34.936Z,87.80
2023-01-06T22:10:40.154Z,87.86
2023-01-06T22:15:42.427Z,87.33
2023-01-06T22:20:44.446Z,87.42
2023-01-06T22:25:45.975Z,87.20
2023-01-06T22:30:47.406Z,88.23
2023-01-06T22:35:48.941Z,88.50
2023-01-06T22:40:50.403Z,88.42
2023-01-06T22:45:56.983Z,88.54
2023-01-06T22:51:02.924Z,88.31
2023-01-06T22:56:10.243Z,88.45
2023-01-06T23:01:11.798Z,88.93
2023-01-06T23:06:16.252Z,88.77
2023-01-06T23:11:19.562Z,88.90
2023-01-06T23:16:22.571Z,88.89
2023-01-06T23:21:27.098Z,89.07
2023-01-06T23:26:29.997Z,88.99
2023-01-06T23:31:35.337Z,89.00
2023-01-06T23:36:38.290Z,89.07
2023-01-06T23:41:40.020Z,89.06
2023-01-06T23:46:42.544Z,89.00
2023-01-06T23:51:44.462Z,89.30
2023-01-06T23:56:45.881Z,89.44
